createdAt,value
2024-04-23T00:02:09.294Z,91.0
2024-04-23T00:15:09.317Z,91.0
2024-04-23T00:28:09.323Z,91.0
2024-04-23T00:41:09.332Z,91.0
2024-04-23T00:54:09.319Z,91.0
2024-04-23T01:07:09.321Z,91.0
2024-04-23T01:20:09.368Z,91.0
2024-04-23T01:33:09.333Z,91.0
2024-04-23T01:46:09.317Z,91.0
2024-04-23T01:59:09.370Z,91.0
2024-04-23T02:12:09.339Z,91.0
2024-04-23T02:25:09.348Z,91.0
2024-04-23T02:38:09.371Z,91.0
2024-04-23T02:51:09.348Z,91.0
2024-04-23T03:04:09.366Z,91.0
2024-04-23T03:17:09.389Z,91.0
2024-04-23T03:30:09.365Z,91.0
2024-04-23T03:43:09.418Z,91.0
2024-04-23T03:56:09.446Z,91.0
2024-04-23T04:09:09.375Z,91.0
2024-04-23T04:23:09.423Z,90.0
2024-04-23T04:37:09.396Z,88.0
2024-04-23T04:51:09.542Z,90.0
2024-04-23T05:05:09.485Z,91.0
2024-04-23T05:19:09.445Z,91.0
2024-04-23T05:33:09.539Z,91.0
2024-04-23T05:47:09.563Z,91.0
2024-04-23T06:02:09.453Z,88.0
2024-04-23T06:17:09.482Z,87.0
2024-04-23T06:31:09.448Z,86.0
2024-04-23T06:45:09.486Z,82.0
2024-04-23T06:59:09.491Z,79.0
2024-04-23T07:13:09.463Z,76.0
2024-04-23T07:27:09.484Z,76.0
2024-04-23T07:41:09.537Z,75.0
2024-04-23T07:55:09.478Z,74.0
2024-04-23T08:09:09.476Z,77.0
2024-04-23T08:23:09.546Z,80.0
2024-04-23T08:37:09.489Z,84.0
2024-04-23T08:51:09.518Z,83.0
2024-04-23T09:05:09.558Z,83.0
2024-04-23T09:20:09.603Z,83.0
2024-04-23T09:34:09.530Z,83.0
2024-04-23T09:48:09.632Z,82.0
2024-04-23T10:02:09.604Z,79.0
2024-04-23T10:16:09.533Z,74.0
2024-04-23T10:30:09.598Z,71.0
2024-04-23T10:44:09.579Z,72.0
2024-04-23T10:58:09.552Z,77.0
2024-04-23T11:12:10.982Z,80.0
2024-04-23T11:26:09.685Z,84.0
2024-04-23T11:40:09.547Z,85.0
2024-04-23T11:54:09.570Z,86.0
2024-04-23T12:08:09.741Z,86.0
2024-04-23T12:22:09.629Z,86.0
2024-04-23T12:36:09.580Z,85.0
2024-04-23T12:50:09.710Z,83.0
2024-04-23T13:04:09.592Z,79.0
2024-04-23T13:18:09.702Z,76.0
2024-04-23T13:32:10.140Z,74.0
2024-04-23T13:46:09.609Z,64.0
2024-04-23T14:00:09.637Z,65.0
2024-04-23T14:14:09.669Z,63.0
2024-04-23T14:28:09.657Z,65.0
2024-04-23T14:42:09.647Z,64.0
2024-04-23T14:56:09.655Z,66.0
2024-04-23T15:10:09.644Z,64.0
2024-04-23T15:24:09.671Z,66.0
2024-04-23T15:38:09.729Z,68.0
2024-04-23T15:52:09.677Z,68.0
2024-04-23T16:06:09.678Z,69.0
2024-04-23T16:21:09.705Z,70.0
2024-04-23T16:35:09.737Z,72.0
2024-04-23T16:49:09.710Z,73.0
2024-04-23T17:17:09.791Z,74.0
2024-04-23T17:32:09.835Z,75.0
2024-04-23T17:46:09.727Z,77.0
2024-04-23T18:01:09.805Z,79.0
2024-04-23T18:15:09.740Z,81.0
2024-04-23T18:29:09.801Z,82.0
2024-04-23T18:43:09.757Z,83.0
2024-04-23T18:56:09.956Z,83.0
2024-04-23T19:09:10.086Z,82.0
2024-04-23T19:22:09.869Z,81.0
2024-04-23T19:35:09.808Z,81.0
2024-04-23T19:48:09.814Z,82.0
2024-04-23T20:01:09.809Z,83.0
2024-04-23T20:14:09.809Z,84.0
2024-04-23T20:27:09.782Z,84.0
2024-04-23T20:40:09.806Z,84.0
2024-04-23T20:53:09.832Z,85.0
2024-04-23T21:06:09.774Z,85.0
2024-04-23T21:19:09.825Z,85.0
2024-04-23T21:32:09.827Z,86.0
2024-04-23T21:45:10.097Z,86.0
2024-04-23T21:58:09.813Z,87.0
2024-04-23T22:11:09.868Z,86.0
2024-04-23T22:24:09.814Z,86.0
2024-04-23T22:37:09.882Z,87.0
2024-04-23T22:50:10.062Z,87.0
2024-04-23T23:03:09.984Z,85.0
2024-04-23T23:16:09.889Z,86.0
2024-04-23T23:29:09.859Z,86.0
2024-04-23T23:42:09.845Z,86.0
2024-04-23T23:55:09.858Z,86.0
